메인 페이지
METAR-TAF:

METAR-TAF

공항 :

네타지 수바스 찬드라 보스 국제공항

콜카타, 인도

위도: 22-39N, 경도: 088-27E, 고도: 4m

현재 날씨관측

예보는 26분 전, 23:00시(UTC)에 발표되었습니다.
남서7kt
온도 28°C
습도 84%
기압 1007 hPa
시정: 3500m
고도 2000ft 상공 구름 조금
고도 10000ft 상공 구름 보통
연무

METAR: VECC 242300Z 22007KT 3500 HZ FEW020 SCT100 28/25 Q1007 NOSIG

시각: 04:56 (23:26 UTC)

예보

예보는 3 시간 26분 전, 20:00시(UTC)에 발표되었습니다.
예보 대상 시간: 24일 21시부터 25일 06시까지 (UTC)
6kt
시정: 3500m
고도 2000ft 상공 구름 조금
연무
전환 중
24일 23시부터 25일 01시까지 (UTC)
시정: 2500m
박무
전환 중
25일 04시부터 25일 06시까지 (UTC)
시정: 4000m
연무

TAF: VECC 242000Z 2421/2506 18006KT 3500 HZ FEW020 BECMG 2423/2501 2500 BR BECMG 2504/2506 4000 HZ

4,000개 이상의 공항 관측 자료 및 예보 (METAR 및 TAF 보고).

지도상에서 검색 가능한 기상관측소가 노란 점과 빨간 점으로 표시되어 있습니다.

기상관측소 명을 보려면 표시 위로 마우스를 이동하세요.

날씨 관측과 예보를 보려면 클릭하세요.

지도 변경 : 확대하려면 엑스 표시가 있는 녹색 버튼, 축소하려면 빼기 표시가 있는 녹색 버튼, 다음 페이지의 지도를 보려면 녹색 화살표를 클릭하세요.


METAR-TAF: